Latest Coastal Weather Observations for Robe Airport

IDV60701

Issued at 5:52 pm EDT Saturday 25 February 2017 (issued every 10 minutes, with the page automatically refreshed every 10 minutes)

About coastal observations | Map of coastal stations | Coastal observations for VIC | Marine services | Other Formats
Station Details ID: 026105 Name: ROBE AIRFIELD Lat: -37.18 Lon: 139.81 Height: 3.0 m
Data from the previous 72 hours. | See also: Recent months at Robe Airport
Date/Time
EDT
Temp
°C
Wind Pressure Rain since
9am
mm
Weather Cloud Vis
km
Sea
Height
m
Swell
Dir  Spd
kts
Gust
kts
hPa Trend Height
m
Period
s
Dir
25/05:30pm 17.9 SSE 16 24 1023.5 - 0.0 - - - - - - -
25/05:00pm 19.0 S 17 23 1023.8 - 0.0 - - - - - - -
25/04:30pm 18.8 SSE 17 24 1024.1 - 0.0 - - - - - - -
25/04:00pm 18.8 S 18 25 1024.5 - 0.0 - - - - - - -
25/03:30pm 19.5 SSE 16 22 1024.6 - 0.0 - - - - - - -
25/03:00pm 19.0 SSE 18 26 1024.9 - 0.0 - - - - - - -
25/02:30pm 19.7 SSE 15 22 1025.1 - 0.0 - - - - - - -
25/02:00pm 19.6 SSE 15 21 1025.2 - 0.0 - - - - - - -
25/01:30pm 19.6 SSE 15 20 1025.5 - 0.0 - - - - - - -
25/01:00pm 20.0 SE 13 19 1025.9 - 0.0 - - - - - - -
25/12:30pm 19.2 SSE 13 17 1026.1 - 0.0 - - - - - - -
25/12:00pm 19.5 SE 11 17 1026.4 - 0.0 - - - - - - -
25/11:30am 19.5 SE 11 15 1026.5 - 0.0 - - - - - - -
25/11:00am 17.5 SSE 11 16 1026.7 - 0.0 - - - - - - -
25/10:30am 18.2 SE 10 14 1026.6 - 0.0 - - - - - - -
25/10:00am 17.8 SE 10 14 1026.5 - 0.0 - - - - - - -
25/09:30am 16.3 SSE 9 14 1026.5 - 0.0 - - - - - - -
25/09:00am 16.8 SSE 12 17 1026.5 - 0.0 - - - - - - -
25/08:30am 15.6 SSE 8 12 1026.5 - 0.0 - - - - - - -
25/08:00am 15.3 SSE 10 13 1026.4 - 0.0 - - - - - - -
25/07:30am 15.1 SSE 7 10 1026.4 - 0.0 - - - - - - -
25/07:00am 14.7 SSE 5 8 1025.9 - 0.0 - - - - - - -
25/06:30am 14.4 SE 4 5 1025.7 - 0.0 - - - - - - -
25/06:00am 14.7 SSE 4 6 1025.8 - 0.0 - - - - - - -
25/05:30am 15.0 SSE 5 8 1025.9 - 0.0 - - - - - - -
25/05:00am 15.2 SE 6 9 1025.8 - 0.0 - - - - - - -
25/04:30am 15.3 SE 8 11 1025.6 - 0.0 - - - - - - -
25/04:00am 15.3 SE 7 10 1025.8 - 0.0 - - - - - - -
25/03:30am 15.1 SSE 6 8 1025.9 - 0.0 - - - - - - -
25/03:00am 15.0 SSE 6 9 1026.2 - 0.0 - - - - - - -
25/02:30am 15.2 SE 5 10 1026.3 - 0.0 - - - - - - -
25/02:00am 14.7 SE 5 7 1026.5 - 0.0 - - - - - - -
25/01:30am 15.2 SSE 3 5 1026.7 - 0.0 - - - - - - -
25/01:00am 15.0 SSE 5 7 1026.9 - 0.0 - - - - - - -
25/12:30am 15.4 SE 4 7 1027.0 - 0.0 - - - - - - -
25/12:00am 15.3 SE 6 8 1027.0 - 0.0 - - - - - - -
 
Date/Time
EDT
Temp
°C
Wind Pressure Rain since
9am
mm
Weather Cloud Vis
km
Sea
Height
m
Swell
Dir  Spd
kts
Gust
kts
hPa Trend Height
m
Period
s
Dir
24/11:30pm 15.0 SSE 7 10 1027.2 - 0.0 - - - - - - -
24/11:00pm 13.6 S 6 8 1027.2 - 0.0 - - - - - - -
24/10:30pm 13.8 SSE 7 10 1027.2 - 0.0 - - - - - - -
24/10:00pm 14.1 SSE 7 9 1027.2 - 0.0 - - - - - - -
24/09:30pm 15.2 S 7 9 1027.0 - 0.0 - - - - - - -
24/09:00pm 16.4 SSE 10 14 1026.9 - 0.0 - - - - - - -
24/08:30pm 15.8 SSE 9 14 1026.6 - 0.0 - - - - - - -
24/08:00pm 16.5 SSE 10 15 1026.4 - 0.0 - - - - - - -
24/07:30pm 17.4 S 13 17 1026.2 - 0.0 - - - - - - -
24/07:00pm 18.3 S 14 18 1026.2 - 0.0 - - - - - - -
24/06:30pm 18.5 S 13 20 1026.1 - 0.0 - - - - - - -
24/06:00pm 18.2 S 13 18 1026.1 - 0.0 - - - - - - -
24/05:30pm 19.2 S 15 21 1025.9 - 0.0 - - - - - - -
24/05:00pm 18.9 S 14 20 1026.0 - 0.0 - - - - - - -
24/04:30pm 19.0 S 12 17 1026.1 - 0.0 - - - - - - -
24/04:00pm 18.8 S 13 17 1026.1 - 0.0 - - - - - - -
24/03:30pm 19.4 S 13 18 1026.4 - 0.0 - - - - - - -
24/03:00pm 19.9 S 13 19 1026.6 - 0.0 - - - - - - -
24/02:30pm 19.6 S 12 18 1026.7 - 0.0 - - - - - - -
24/02:00pm 18.7 S 13 18 1026.9 - 0.0 - - - - - - -
24/01:30pm 18.5 S 14 19 1026.9 - 0.0 - - - - - - -
24/01:00pm 18.6 S 12 17 1027.1 - 0.0 - - - - - - -
24/12:30pm 19.3 S 11 15 1027.2 - 0.0 - - - - - - -
24/12:00pm 18.4 SSW 11 14 1027.3 - 0.0 - - - - - - -
24/11:30am 18.2 SSW 12 15 1027.3 - 0.0 - - - - - - -
24/11:00am 18.2 SSW 11 15 1027.2 - 0.0 - - - - - - -
24/10:30am 18.2 SSW 10 13 1027.1 - 0.0 - - - - - - -
24/10:00am 17.6 SSW 10 15 1026.9 - 0.0 - - - - - - -
24/09:30am 17.2 S 8 11 1026.7 - 0.0 - - - - - - -
24/09:00am 16.9 S 7 9 1026.4 - 0.0 - - - - - - -
24/08:30am 16.4 S 5 7 1026.1 - 0.0 - - - - - - -
24/08:00am 16.1 S 9 13 1025.7 - 0.0 - - - - - - -
24/07:30am 15.8 S 7 8 1025.4 - 0.0 - - - - - - -
24/07:00am 15.4 SSW 4 6 1025.1 - 0.0 - - - - - - -
24/06:30am 14.7 CALM 0 0 1024.9 - 0.0 - - - - - - -
24/06:00am 14.8 S 1 2 1024.6 - 0.0 - - - - - - -
24/05:30am 15.2 S 4 6 1024.5 - 0.0 - - - - - - -
24/05:00am 15.3 S 6 8 1024.3 - 0.0 - - - - - - -
24/04:30am 14.8 S 2 4 1024.4 - 0.0 - - - - - - -
24/04:00am 14.9 SSE 2 4 1024.3 - 0.0 - - - - - - -
24/03:30am 15.1 SSE 5 10 1024.3 - 0.0 - - - - - - -
24/03:00am 14.9 SSE 2 3 1024.3 - 0.0 - - - - - - -
24/02:30am 14.9 CALM 0 0 1024.4 - 0.0 - - - - - - -
24/02:00am 14.9 CALM 0 1 1024.5 - 0.0 - - - - - - -
24/01:30am 15.2 SSE 5 6 1024.6 - 0.0 - - - - - - -
24/01:00am 14.8 SSW 5 6 1024.7 - 0.0 - - - - - - -
24/12:30am 14.5 SSW 5 7 1024.8 - 0.0 - - - - - - -
24/12:00am 13.4 SSW 4 5 1024.8 - 0.0 - - - - - - -
 
Date/Time
EDT
Temp
°C
Wind Pressure Rain since
9am
mm
Weather Cloud Vis
km
Sea
Height
m
Swell
Dir  Spd
kts
Gust
kts
hPa Trend Height
m
Period
s
Dir
23/11:30pm 12.9 SSW 3 3 1024.8 - 0.0 - - - - - - -
23/11:00pm 12.3 SSW 3 4 1024.6 - 0.0 - - - - - - -
23/10:30pm 13.3 SSW 4 5 1024.5 - 0.0 - - - - - - -
23/10:00pm 13.2 SSW 3 4 1024.4 - 0.0 - - - - - - -
23/09:30pm 14.9 SW 5 10 1024.0 - 0.0 - - - - - - -
23/09:00pm 15.7 SSW 5 8 1023.6 - 0.0 - - - - - - -
23/08:30pm 16.0 SSW 5 8 1023.1 - 0.0 - - - - - - -
23/08:00pm 16.4 SSW 8 11 1022.7 - 0.0 - - - - - - -
23/07:30pm 16.8 SSW 8 11 1022.5 - 0.0 - - - - - - -
23/07:00pm 17.1 SSW 8 13 1022.2 - 0.0 - - - - - - -
23/06:30pm 17.6 SSW 9 12 1022.0 - 0.0 - - - - - - -
23/06:00pm 17.5 SSW 10 14 1021.9 - 0.0 - - - - - - -
23/05:30pm 17.9 SSW 8 13 1021.6 - 0.0 - - - - - - -
23/05:00pm 18.9 SSW 9 13 1021.3 - 0.0 - - - - - - -
23/04:30pm 19.0 SW 7 13 1021.2 - 0.0 - - - - - - -
23/04:00pm 19.2 SW 7 11 1021.2 - 0.0 - - - - - - -
23/03:30pm 19.3 WSW 6 10 1021.3 - 0.0 - - - - - - -
23/03:00pm 19.1 SSW 5 8 1021.2 - 0.0 - - - - - - -
23/02:30pm 18.4 SW 8 11 1021.0 - 0.0 - - - - - - -
23/02:00pm 19.0 W 5 8 1020.9 - 0.0 - - - - - - -
23/01:30pm 17.9 WSW 7 11 1020.9 - 0.0 - - - - - - -
23/01:00pm 18.1 SSW 7 12 1020.7 - 0.0 - - - - - - -
23/12:30pm 17.7 SSW 8 12 1020.7 - 0.0 - - - - - - -
23/12:00pm 17.8 SW 7 10 1020.7 - 0.0 - - - - - - -
23/11:30am 17.6 SW 8 14 1020.3 - 0.0 - - - - - - -
23/11:00am 16.9 SW 10 14 1020.2 - 0.0 - - - - - - -
23/10:30am 17.0 SW 9 14 1019.5 - 0.0 - - - - - - -
23/10:00am 17.5 SW 11 16 1019.0 - 0.0 - - - - - - -
23/09:30am 17.4 SW 9 16 1018.6 - 0.0 - - - - - - -
23/09:00am 16.4 SW 11 18 1018.2 - 0.0 - - - - - - -
23/08:30am 15.7 SW 9 13 1017.7 - 0.0 - - - - - - -
23/08:00am 16.1 SW 11 17 1017.1 - 0.0 - - - - - - -
23/07:30am 16.1 SW 9 16 1016.7 - 0.0 - - - - - - -
23/07:00am 16.3 WSW 10 15 1016.3 - 0.0 - - - - - - -
23/06:30am 16.2 WSW 10 17 1015.5 - 0.0 - - - - - - -
23/06:00am 16.2 WSW 11 19 1014.9 - 0.0 - - - - - - -
23/05:30am 16.2 WSW 12 19 1014.5 - 0.0 - - - - - - -
23/05:00am 16.6 W 10 15 1014.8 - 0.0 - - - - - - -
23/04:30am 16.3 W 11 22 1014.6 - 0.0 - - - - - - -
23/04:00am 16.7 WNW 12 19 1014.4 - 0.0 - - - - - - -
23/03:30am 16.3 WNW 13 22 1014.2 - 0.0 - - - - - - -
23/03:00am 16.7 WNW 13 19 1013.9 - 0.0 - - - - - - -
23/02:30am 16.6 WNW 13 21 1013.7 - 0.0 - - - - - - -
23/02:00am 17.1 WNW 15 22 1013.7 - 0.0 - - - - - - -
23/01:30am 17.3 NW 14 21 1013.6 - 0.0 - - - - - - -
23/01:00am 17.3 WNW 15 21 1013.4 - 0.0 - - - - - - -
23/12:30am 17.4 WNW 14 21 1013.1 - 0.0 - - - - - - -
23/12:00am 17.3 WNW 15 23 1012.9 - 0.0 - - - - - - -
 
Date/Time
EDT
Temp
°C
Wind Pressure Rain since
9am
mm
Weather Cloud Vis
km
Sea
Height
m
Swell
Dir  Spd
kts
Gust
kts
hPa Trend Height
m
Period
s
Dir
22/11:30pm 17.5 WNW 17 25 1012.8 - 0.0 - - - - - - -
22/11:00pm 17.8 WNW 17 27 1012.5 - 0.0 - - - - - - -
22/10:59pm 17.8 WNW 17 27 1012.5 - 0.0 - - - - - - -
22/10:30pm 18.0 NW 16 22 1012.1 - 0.0 - - - - - - -
22/10:00pm 18.1 WNW 17 25 1011.8 - 0.0 - - - - - - -
22/09:30pm 18.0 NW 14 21 1011.4 - 0.0 - - - - - - -
22/09:00pm 18.5 NW 15 25 1010.9 - 0.0 - - - - - - -
22/08:42pm 18.8 NW 15 27 1010.7 - 0.0 - - - - - - -
22/08:30pm 18.6 NNW 14 21 1010.5 - 0.0 - - - - - - -
22/08:00pm 19.1 NNW 13 19 1010.0 - 0.0 - - - - - - -
22/07:30pm 19.9 NNW 17 24 1009.6 - 0.0 - - - - - - -
22/07:00pm 20.4 NNW 17 22 1009.3 - 0.0 - - - - - - -
22/06:30pm 20.5 NNW 17 24 1009.2 - 0.0 - - - - - - -

Other Formats:

Comma delimited format used in spreadsheet applications
http://www.bom.gov.au/fwo/IDV60701/IDV60701.95816.axf

JavaScript Object Notation format (JSON) in row-major order
http://www.bom.gov.au/fwo/IDV60701/IDV60701.95816.json